Terminal Aerodrome Forecast
Issued by NWS Charleston, WV

Current Version | Previous Version | Graphics & Text | Print | Product List | Glossary On
Versions: 1 2 3 4 5 6 7 8 9 10 11 12 13 14 15 16 17 18 19 20 21
000
FTUS41 KRLX 300911 AAA
TAFPKB
TAF AMD
KPKB 300911Z 3009/3106 00000KT 5SM BR BKN012
     FM301100 VRB03KT 6SM BR BKN045
     FM301300 32007KT P6SM SCT045=

USA.gov is the U.S. government's official web portal to all federal, state and local government web resources and services.